sensor_id;sensor_type;location;lat;lon;timestamp;temperature;humidity
13880;DHT22;7010;48.200;16.332;2023-04-01T00:01:13;10.90;99.90
13880;DHT22;7010;48.200;16.332;2023-04-01T00:03:41;10.90;99.90
13880;DHT22;7010;48.200;16.332;2023-04-01T00:06:14;10.90;99.90
13880;DHT22;7010;48.200;16.332;2023-04-01T00:08:43;10.90;99.90
13880;DHT22;7010;48.200;16.332;2023-04-01T00:11:12;10.90;99.90
13880;DHT22;7010;48.200;16.332;2023-04-01T00:13:42;10.90;99.90
13880;DHT22;7010;48.200;16.332;2023-04-01T00:16:10;10.80;99.90
13880;DHT22;7010;48.200;16.332;2023-04-01T00:18:48;10.90;99.90
13880;DHT22;7010;48.200;16.332;2023-04-01T00:21:19;10.90;99.90
13880;DHT22;7010;48.200;16.332;2023-04-01T00:23:49;10.90;99.90
13880;DHT22;7010;48.200;16.332;2023-04-01T00:26:18;10.80;99.90
13880;DHT22;7010;48.200;16.332;2023-04-01T00:28:48;10.80;99.90
13880;DHT22;7010;48.200;16.332;2023-04-01T00:31:18;10.80;99.90
13880;DHT22;7010;48.200;16.332;2023-04-01T00:33:46;10.80;99.90
13880;DHT22;7010;48.200;16.332;2023-04-01T00:36:16;10.80;99.90
13880;DHT22;7010;48.200;16.332;2023-04-01T00:38:46;10.70;99.90
13880;DHT22;7010;48.200;16.332;2023-04-01T00:41:16;10.70;99.90
13880;DHT22;7010;48.200;16.332;2023-04-01T00:43:49;10.70;99.90
13880;DHT22;7010;48.200;16.332;2023-04-01T00:46:18;10.70;99.90
13880;DHT22;7010;48.200;16.332;2023-04-01T00:48:49;10.70;99.90
13880;DHT22;7010;48.200;16.332;2023-04-01T00:51:21;10.70;99.90
13880;DHT22;7010;48.200;16.332;2023-04-01T00:53:53;10.70;99.90
13880;DHT22;7010;48.200;16.332;2023-04-01T00:56:24;10.70;99.90
13880;DHT22;7010;48.200;16.332;2023-04-01T00:58:57;10.70;99.90
13880;DHT22;7010;48.200;16.332;2023-04-01T01:01:28;10.70;99.90
13880;DHT22;7010;48.200;16.332;2023-04-01T01:03:57;10.70;99.90
13880;DHT22;7010;48.200;16.332;2023-04-01T01:06:35;10.70;99.90
13880;DHT22;7010;48.200;16.332;2023-04-01T01:09:25;10.70;99.90
13880;DHT22;7010;48.200;16.332;2023-04-01T01:12:01;10.70;99.90
13880;DHT22;7010;48.200;16.332;2023-04-01T01:17:34;10.70;99.90
13880;DHT22;7010;48.200;16.332;2023-04-01T01:23:32;10.60;99.90
13880;DHT22;7010;48.200;16.332;2023-04-01T01:26:21;10.60;99.90
13880;DHT22;7010;48.200;16.332;2023-04-01T01:29:00;10.60;99.90
13880;DHT22;7010;48.200;16.332;2023-04-01T01:31:35;10.60;99.90
13880;DHT22;7010;48.200;16.332;2023-04-01T01:34:14;10.60;99.90
13880;DHT22;7010;48.200;16.332;2023-04-01T01:36:50;10.60;99.90
13880;DHT22;7010;48.200;16.332;2023-04-01T01:39:20;10.60;99.90
13880;DHT22;7010;48.200;16.332;2023-04-01T01:41:54;10.60;99.90
13880;DHT22;7010;48.200;16.332;2023-04-01T01:44:25;10.60;99.90
13880;DHT22;7010;48.200;16.332;2023-04-01T01:46:56;10.60;99.90
13880;DHT22;7010;48.200;16.332;2023-04-01T01:49:25;10.60;99.90
13880;DHT22;7010;48.200;16.332;2023-04-01T01:51:58;10.60;99.90
13880;DHT22;7010;48.200;16.332;2023-04-01T01:54:26;10.60;99.90
13880;DHT22;7010;48.200;16.332;2023-04-01T01:57:01;10.50;99.90
13880;DHT22;7010;48.200;16.332;2023-04-01T01:59:33;10.50;99.90
13880;DHT22;7010;48.200;16.332;2023-04-01T02:02:03;10.40;99.90
13880;DHT22;7010;48.200;16.332;2023-04-01T02:04:35;10.50;99.90
13880;DHT22;7010;48.200;16.332;2023-04-01T02:07:10;10.40;99.90
13880;DHT22;7010;48.200;16.332;2023-04-01T02:09:40;10.40;99.90
13880;DHT22;7010;48.200;16.332;2023-04-01T02:12:12;10.40;99.90
13880;DHT22;7010;48.200;16.332;2023-04-01T02:14:45;10.40;99.90
13880;DHT22;7010;48.200;16.332;2023-04-01T02:17:16;10.40;99.90
13880;DHT22;7010;48.200;16.332;2023-04-01T02:19:49;10.40;99.90
13880;DHT22;7010;48.200;16.332;2023-04-01T02:22:23;10.30;99.90
13880;DHT22;7010;48.200;16.332;2023-04-01T02:24:54;10.30;99.90
13880;DHT22;7010;48.200;16.332;2023-04-01T02:27:25;10.30;99.90
13880;DHT22;7010;48.200;16.332;2023-04-01T02:29:54;10.30;99.90
13880;DHT22;7010;48.200;16.332;2023-04-01T02:32:23;10.30;99.90
13880;DHT22;7010;48.200;16.332;2023-04-01T02:34:52;10.30;99.90
13880;DHT22;7010;48.200;16.332;2023-04-01T02:37:22;10.20;99.90
13880;DHT22;7010;48.200;16.332;2023-04-01T02:39:50;10.30;99.90
13880;DHT22;7010;48.200;16.332;2023-04-01T02:42:19;10.20;99.90
13880;DHT22;7010;48.200;16.332;2023-04-01T02:44:47;10.20;99.90
13880;DHT22;7010;48.200;16.332;2023-04-01T02:47:15;10.20;99.90
13880;DHT22;7010;48.200;16.332;2023-04-01T02:49:43;10.20;99.90
13880;DHT22;7010;48.200;16.332;2023-04-01T02:52:12;10.10;99.90
13880;DHT22;7010;48.200;16.332;2023-04-01T02:54:41;10.20;99.90
13880;DHT22;7010;48.200;16.332;2023-04-01T02:57:10;10.20;99.90
13880;DHT22;7010;48.200;16.332;2023-04-01T02:59:38;10.10;99.90
13880;DHT22;7010;48.200;16.332;2023-04-01T03:02:06;10.10;99.90
13880;DHT22;7010;48.200;16.332;2023-04-01T03:04:35;10.00;99.90
13880;DHT22;7010;48.200;16.332;2023-04-01T03:07:03;9.90;99.90
13880;DHT22;7010;48.200;16.332;2023-04-01T03:09:32;9.80;99.90
13880;DHT22;7010;48.200;16.332;2023-04-01T03:12:02;9.80;99.90
13880;DHT22;7010;48.200;16.332;2023-04-01T03:14:31;9.80;99.90
13880;DHT22;7010;48.200;16.332;2023-04-01T03:16:59;9.80;99.90
13880;DHT22;7010;48.200;16.332;2023-04-01T03:19:27;9.80;99.90
13880;DHT22;7010;48.200;16.332;2023-04-01T03:21:56;9.80;99.90
13880;DHT22;7010;48.200;16.332;2023-04-01T03:24:24;9.80;99.90
13880;DHT22;7010;48.200;16.332;2023-04-01T03:26:52;9.80;99.90
13880;DHT22;7010;48.200;16.332;2023-04-01T03:29:22;9.80;99.90
13880;DHT22;7010;48.200;16.332;2023-04-01T03:31:51;9.80;99.90
13880;DHT22;7010;48.200;16.332;2023-04-01T03:34:19;9.80;99.90
13880;DHT22;7010;48.200;16.332;2023-04-01T03:36:51;9.70;99.90
13880;DHT22;7010;48.200;16.332;2023-04-01T03:39:19;9.70;99.90
13880;DHT22;7010;48.200;16.332;2023-04-01T03:41:48;9.70;99.90
13880;DHT22;7010;48.200;16.332;2023-04-01T03:44:17;9.70;99.90
13880;DHT22;7010;48.200;16.332;2023-04-01T03:46:49;9.70;99.90
13880;DHT22;7010;48.200;16.332;2023-04-01T03:49:18;9.70;99.90
13880;DHT22;7010;48.200;16.332;2023-04-01T03:51:46;9.70;99.90
13880;DHT22;7010;48.200;16.332;2023-04-01T03:54:15;9.70;99.90
13880;DHT22;7010;48.200;16.332;2023-04-01T03:56:43;9.70;99.90
13880;DHT22;7010;48.200;16.332;2023-04-01T03:59:12;9.60;99.90
13880;DHT22;7010;48.200;16.332;2023-04-01T04:01:41;9.70;99.90
13880;DHT22;7010;48.200;16.332;2023-04-01T04:04:12;9.70;99.90
13880;DHT22;7010;48.200;16.332;2023-04-01T04:06:41;9.60;99.90
13880;DHT22;7010;48.200;16.332;2023-04-01T04:09:09;9.60;99.90
13880;DHT22;7010;48.200;16.332;2023-04-01T04:11:38;9.70;99.90
13880;DHT22;7010;48.200;16.332;2023-04-01T04:14:06;9.70;99.90
13880;DHT22;7010;48.200;16.332;2023-04-01T04:16:37;9.70;99.90
13880;DHT22;7010;48.200;16.332;2023-04-01T04:19:08;9.70;99.90
13880;DHT22;7010;48.200;16.332;2023-04-01T04:21:39;9.70;99.90
13880;DHT22;7010;48.200;16.332;2023-04-01T04:24:08;9.80;99.90
13880;DHT22;7010;48.200;16.332;2023-04-01T04:26:37;9.80;99.90
13880;DHT22;7010;48.200;16.332;2023-04-01T04:29:05;9.80;99.90
13880;DHT22;7010;48.200;16.332;2023-04-01T04:31:34;9.80;99.90
13880;DHT22;7010;48.200;16.332;2023-04-01T04:34:02;9.80;99.90
13880;DHT22;7010;48.200;16.332;2023-04-01T04:36:30;9.80;99.90
13880;DHT22;7010;48.200;16.332;2023-04-01T04:39:00;9.90;99.90
13880;DHT22;7010;48.200;16.332;2023-04-01T04:41:30;9.90;99.90
13880;DHT22;7010;48.200;16.332;2023-04-01T04:43:58;9.90;99.90
13880;DHT22;7010;48.200;16.332;2023-04-01T04:46:29;9.90;99.90
13880;DHT22;7010;48.200;16.332;2023-04-01T04:48:57;9.90;99.90
13880;DHT22;7010;48.200;16.332;2023-04-01T04:51:26;9.90;99.90
13880;DHT22;7010;48.200;16.332;2023-04-01T04:53:54;9.90;99.90
13880;DHT22;7010;48.200;16.332;2023-04-01T04:56:23;9.90;99.90
13880;DHT22;7010;48.200;16.332;2023-04-01T04:58:53;9.90;99.90
13880;DHT22;7010;48.200;16.332;2023-04-01T05:01:24;9.80;99.90
13880;DHT22;7010;48.200;16.332;2023-04-01T05:03:53;9.80;99.90
13880;DHT22;7010;48.200;16.332;2023-04-01T05:06:21;9.80;99.90
13880;DHT22;7010;48.200;16.332;2023-04-01T05:08:50;9.80;99.90
13880;DHT22;7010;48.200;16.332;2023-04-01T05:11:19;9.80;99.90
13880;DHT22;7010;48.200;16.332;2023-04-01T05:13:49;9.80;99.90
13880;DHT22;7010;48.200;16.332;2023-04-01T05:16:19;9.80;99.90
13880;DHT22;7010;48.200;16.332;2023-04-01T05:18:48;9.80;99.90
13880;DHT22;7010;48.200;16.332;2023-04-01T05:21:17;9.80;99.90
13880;DHT22;7010;48.200;16.332;2023-04-01T05:23:45;9.80;99.90
13880;DHT22;7010;48.200;16.332;2023-04-01T05:26:14;9.80;99.90
13880;DHT22;7010;48.200;16.332;2023-04-01T05:28:43;9.80;99.90
13880;DHT22;7010;48.200;16.332;2023-04-01T05:31:13;9.80;99.90
13880;DHT22;7010;48.200;16.332;2023-04-01T05:33:41;9.90;99.90
13880;DHT22;7010;48.200;16.332;2023-04-01T05:36:12;9.90;99.90
13880;DHT22;7010;48.200;16.332;2023-04-01T05:38:44;9.90;99.90
13880;DHT22;7010;48.200;16.332;2023-04-01T05:41:14;9.90;99.90
13880;DHT22;7010;48.200;16.332;2023-04-01T05:43:43;9.90;99.90
13880;DHT22;7010;48.200;16.332;2023-04-01T05:46:13;9.90;99.90
13880;DHT22;7010;48.200;16.332;2023-04-01T05:48:41;9.90;99.90
13880;DHT22;7010;48.200;16.332;2023-04-01T05:51:12;9.90;99.90
13880;DHT22;7010;48.200;16.332;2023-04-01T05:53:40;9.90;99.90
13880;DHT22;7010;48.200;16.332;2023-04-01T05:56:09;10.00;99.90
13880;DHT22;7010;48.200;16.332;2023-04-01T05:58:38;10.00;99.90
13880;DHT22;7010;48.200;16.332;2023-04-01T06:01:08;10.10;99.90
13880;DHT22;7010;48.200;16.332;2023-04-01T06:03:43;10.20;99.90
13880;DHT22;7010;48.200;16.332;2023-04-01T06:06:14;10.30;99.90
13880;DHT22;7010;48.200;16.332;2023-04-01T06:08:43;10.40;99.90
13880;DHT22;7010;48.200;16.332;2023-04-01T06:11:22;10.50;99.90
13880;DHT22;7010;48.200;16.332;2023-04-01T06:14:07;10.50;99.90
13880;DHT22;7010;48.200;16.332;2023-04-01T06:16:49;10.60;99.90
13880;DHT22;7010;48.200;16.332;2023-04-01T06:19:27;10.70;99.90
13880;DHT22;7010;48.200;16.332;2023-04-01T06:22:26;10.80;99.90
13880;DHT22;7010;48.200;16.332;2023-04-01T06:25:16;10.80;99.90
13880;DHT22;7010;48.200;16.332;2023-04-01T06:28:01;10.90;99.90
13880;DHT22;7010;48.200;16.332;2023-04-01T06:30:40;10.90;99.90
13880;DHT22;7010;48.200;16.332;2023-04-01T06:36:34;10.90;99.90
13880;DHT22;7010;48.200;16.332;2023-04-01T06:42:07;11.00;99.90
13880;DHT22;7010;48.200;16.332;2023-04-01T06:44:46;11.10;99.90
13880;DHT22;7010;48.200;16.332;2023-04-01T06:47:30;11.10;99.90
13880;DHT22;7010;48.200;16.332;2023-04-01T06:50:06;11.20;99.90
13880;DHT22;7010;48.200;16.332;2023-04-01T06:52:43;11.20;99.90
13880;DHT22;7010;48.200;16.332;2023-04-01T06:55:26;11.20;99.90
13880;DHT22;7010;48.200;16.332;2023-04-01T06:57:56;11.20;99.90
13880;DHT22;7010;48.200;16.332;2023-04-01T07:00:30;11.20;99.90
13880;DHT22;7010;48.200;16.332;2023-04-01T07:03:06;11.10;99.90
13880;DHT22;7010;48.200;16.332;2023-04-01T07:05:39;11.20;99.90
13880;DHT22;7010;48.200;16.332;2023-04-01T07:08:12;11.20;99.90
13880;DHT22;7010;48.200;16.332;2023-04-01T07:10:46;11.30;99.90
13880;DHT22;7010;48.200;16.332;2023-04-01T07:13:20;11.40;99.90
13880;DHT22;7010;48.200;16.332;2023-04-01T07:15:57;11.40;99.90
13880;DHT22;7010;48.200;16.332;2023-04-01T07:18:32;11.40;99.90
13880;DHT22;7010;48.200;16.332;2023-04-01T07:21:04;11.50;99.90
13880;DHT22;7010;48.200;16.332;2023-04-01T07:23:42;11.60;99.90
13880;DHT22;7010;48.200;16.332;2023-04-01T07:26:18;11.60;99.90
13880;DHT22;7010;48.200;16.332;2023-04-01T07:28:48;11.60;99.90
13880;DHT22;7010;48.200;16.332;2023-04-01T07:31:36;11.60;99.90
13880;DHT22;7010;48.200;16.332;2023-04-01T07:34:12;11.50;99.90
13880;DHT22;7010;48.200;16.332;2023-04-01T07:36:45;11.50;99.90
13880;DHT22;7010;48.200;16.332;2023-04-01T07:39:26;11.60;99.90
13880;DHT22;7010;48.200;16.332;2023-04-01T07:42:04;11.60;99.90
13880;DHT22;7010;48.200;16.332;2023-04-01T07:44:42;11.70;99.90
13880;DHT22;7010;48.200;16.332;2023-04-01T07:50:19;11.80;99.90
13880;DHT22;7010;48.200;16.332;2023-04-01T07:52:54;11.90;99.90
13880;DHT22;7010;48.200;16.332;2023-04-01T07:55:37;12.00;99.90
13880;DHT22;7010;48.200;16.332;2023-04-01T07:58:14;12.10;99.90
13880;DHT22;7010;48.200;16.332;2023-04-01T08:00:50;12.10;99.90
13880;DHT22;7010;48.200;16.332;2023-04-01T08:03:37;12.20;99.90
13880;DHT22;7010;48.200;16.332;2023-04-01T08:06:13;12.20;99.90
13880;DHT22;7010;48.200;16.332;2023-04-01T08:08:52;12.30;99.90
13880;DHT22;7010;48.200;16.332;2023-04-01T08:11:35;12.40;99.90
13880;DHT22;7010;48.200;16.332;2023-04-01T08:14:14;12.50;99.90
13880;DHT22;7010;48.200;16.332;2023-04-01T08:16:49;12.70;99.90
13880;DHT22;7010;48.200;16.332;2023-04-01T08:19:31;12.90;99.90
13880;DHT22;7010;48.200;16.332;2023-04-01T08:22:11;13.20;99.90
13880;DHT22;7010;48.200;16.332;2023-04-01T08:24:44;13.40;99.90
13880;DHT22;7010;48.200;16.332;2023-04-01T08:27:20;13.60;99.90
13880;DHT22;7010;48.200;16.332;2023-04-01T08:29:53;13.60;99.90
13880;DHT22;7010;48.200;16.332;2023-04-01T08:32:28;13.60;99.90
13880;DHT22;7010;48.200;16.332;2023-04-01T08:35:06;13.50;99.90
13880;DHT22;7010;48.200;16.332;2023-04-01T08:37:38;13.40;99.90
13880;DHT22;7010;48.200;16.332;2023-04-01T08:40:25;13.30;99.90
13880;DHT22;7010;48.200;16.332;2023-04-01T08:43:07;13.40;99.90
13880;DHT22;7010;48.200;16.332;2023-04-01T08:46:01;13.50;99.90
13880;DHT22;7010;48.200;16.332;2023-04-01T08:48:55;13.30;99.90
13880;DHT22;7010;48.200;16.332;2023-04-01T08:54:45;14.10;99.90
13880;DHT22;7010;48.200;16.332;2023-04-01T08:57:24;14.70;99.90
13880;DHT22;7010;48.200;16.332;2023-04-01T09:00:14;14.50;99.90
13880;DHT22;7010;48.200;16.332;2023-04-01T09:02:55;14.40;99.90
13880;DHT22;7010;48.200;16.332;2023-04-01T09:05:42;14.30;99.90
13880;DHT22;7010;48.200;16.332;2023-04-01T09:08:30;14.40;99.90
13880;DHT22;7010;48.200;16.332;2023-04-01T09:11:10;14.50;99.90
13880;DHT22;7010;48.200;16.332;2023-04-01T09:14:03;14.30;99.90
13880;DHT22;7010;48.200;16.332;2023-04-01T09:17:01;14.30;99.90
13880;DHT22;7010;48.200;16.332;2023-04-01T09:19:50;14.10;99.90
13880;DHT22;7010;48.200;16.332;2023-04-01T09:22:35;14.00;99.90
13880;DHT22;7010;48.200;16.332;2023-04-01T09:25:32;14.30;99.90
13880;DHT22;7010;48.200;16.332;2023-04-01T09:28:09;14.30;99.90
13880;DHT22;7010;48.200;16.332;2023-04-01T09:31:05;14.10;99.90
13880;DHT22;7010;48.200;16.332;2023-04-01T09:34:17;13.90;99.90
13880;DHT22;7010;48.200;16.332;2023-04-01T09:36:59;13.80;99.90
13880;DHT22;7010;48.200;16.332;2023-04-01T09:39:37;13.50;99.90
13880;DHT22;7010;48.200;16.332;2023-04-01T09:45:17;13.20;99.90
13880;DHT22;7010;48.200;16.332;2023-04-01T09:47:58;13.60;99.90
13880;DHT22;7010;48.200;16.332;2023-04-01T09:50:38;14.70;99.90
13880;DHT22;7010;48.200;16.332;2023-04-01T09:53:20;15.20;99.90
13880;DHT22;7010;48.200;16.332;2023-04-01T09:56:13;15.10;99.90
13880;DHT22;7010;48.200;16.332;2023-04-01T09:59:08;14.60;99.90
13880;DHT22;7010;48.200;16.332;2023-04-01T10:01:59;14.40;99.90
13880;DHT22;7010;48.200;16.332;2023-04-01T10:07:59;15.50;99.90
13880;DHT22;7010;48.200;16.332;2023-04-01T10:11:02;16.30;99.90
13880;DHT22;7010;48.200;16.332;2023-04-01T10:14:23;16.60;99.90
13880;DHT22;7010;48.200;16.332;2023-04-01T10:17:40;17.00;99.40
13880;DHT22;7010;48.200;16.332;2023-04-01T10:23:44;16.40;96.40
13880;DHT22;7010;48.200;16.332;2023-04-01T10:26:49;15.40;98.50
13880;DHT22;7010;48.200;16.332;2023-04-01T10:32:43;15.00;99.60
13880;DHT22;7010;48.200;16.332;2023-04-01T10:39:00;14.40;99.90
13880;DHT22;7010;48.200;16.332;2023-04-01T10:42:11;14.00;99.90
13880;DHT22;7010;48.200;16.332;2023-04-01T10:45:04;13.90;99.90
13880;DHT22;7010;48.200;16.332;2023-04-01T10:51:18;13.80;99.90
13880;DHT22;7010;48.200;16.332;2023-04-01T10:56:54;13.80;99.90
13880;DHT22;7010;48.200;16.332;2023-04-01T11:06:05;14.20;99.90
13880;DHT22;7010;48.200;16.332;2023-04-01T11:15:31;14.90;99.90
13880;DHT22;7010;48.200;16.332;2023-04-01T11:18:41;14.70;99.90
13880;DHT22;7010;48.200;16.332;2023-04-01T11:21:42;14.40;99.90
13880;DHT22;7010;48.200;16.332;2023-04-01T11:24:26;14.40;99.90
13880;DHT22;7010;48.200;16.332;2023-04-01T11:27:09;14.50;99.90
13880;DHT22;7010;48.200;16.332;2023-04-01T11:30:14;14.50;99.90
13880;DHT22;7010;48.200;16.332;2023-04-01T11:32:52;14.90;99.90
13880;DHT22;7010;48.200;16.332;2023-04-01T11:35:59;15.00;99.40
13880;DHT22;7010;48.200;16.332;2023-04-01T11:39:04;15.20;99.40
13880;DHT22;7010;48.200;16.332;2023-04-01T11:41:41;15.30;99.10
13880;DHT22;7010;48.200;16.332;2023-04-01T11:44:16;15.50;98.40
13880;DHT22;7010;48.200;16.332;2023-04-01T11:46:56;15.40;98.60
13880;DHT22;7010;48.200;16.332;2023-04-01T11:49:45;15.40;98.60
13880;DHT22;7010;48.200;16.332;2023-04-01T11:52:50;15.40;98.40
13880;DHT22;7010;48.200;16.332;2023-04-01T11:55:26;15.10;97.90
13880;DHT22;7010;48.200;16.332;2023-04-01T11:58:21;15.20;97.80
13880;DHT22;7010;48.200;16.332;2023-04-01T12:01:09;15.40;98.40
13880;DHT22;7010;48.200;16.332;2023-04-01T12:03:56;15.70;97.80
13880;DHT22;7010;48.200;16.332;2023-04-01T12:06:36;16.10;97.00
13880;DHT22;7010;48.200;16.332;2023-04-01T12:09:13;16.30;96.40
13880;DHT22;7010;48.200;16.332;2023-04-01T12:11:55;16.20;96.80
13880;DHT22;7010;48.200;16.332;2023-04-01T12:14:32;15.90;96.70
13880;DHT22;7010;48.200;16.332;2023-04-01T12:17:11;15.80;96.60
13880;DHT22;7010;48.200;16.332;2023-04-01T12:19:50;15.70;96.90
13880;DHT22;7010;48.200;16.332;2023-04-01T12:22:34;15.50;97.30
13880;DHT22;7010;48.200;16.332;2023-04-01T12:25:19;15.30;97.00
13880;DHT22;7010;48.200;16.332;2023-04-01T12:28:00;15.30;97.00
13880;DHT22;7010;48.200;16.332;2023-04-01T12:30:48;15.30;96.90
13880;DHT22;7010;48.200;16.332;2023-04-01T12:36:30;15.00;97.30
13880;DHT22;7010;48.200;16.332;2023-04-01T12:39:22;15.00;97.10
13880;DHT22;7010;48.200;16.332;2023-04-01T12:42:04;15.30;97.20
13880;DHT22;7010;48.200;16.332;2023-04-01T12:44:51;15.30;97.00
13880;DHT22;7010;48.200;16.332;2023-04-01T12:47:36;15.20;96.90
13880;DHT22;7010;48.200;16.332;2023-04-01T12:50:31;14.90;98.40
13880;DHT22;7010;48.200;16.332;2023-04-01T12:55:54;14.30;99.90
13880;DHT22;7010;48.200;16.332;2023-04-01T12:58:52;14.60;99.90
13880;DHT22;7010;48.200;16.332;2023-04-01T13:01:40;15.20;99.40
13880;DHT22;7010;48.200;16.332;2023-04-01T13:04:30;15.70;98.70
13880;DHT22;7010;48.200;16.332;2023-04-01T13:07:16;16.00;97.30
13880;DHT22;7010;48.200;16.332;2023-04-01T13:09:50;16.30;95.90
13880;DHT22;7010;48.200;16.332;2023-04-01T13:12:36;16.70;95.70
13880;DHT22;7010;48.200;16.332;2023-04-01T13:15:16;17.30;94.20
13880;DHT22;7010;48.200;16.332;2023-04-01T13:17:53;17.40;93.50
13880;DHT22;7010;48.200;16.332;2023-04-01T13:20:36;17.40;93.40
13880;DHT22;7010;48.200;16.332;2023-04-01T13:23:16;17.10;93.30
13880;DHT22;7010;48.200;16.332;2023-04-01T13:25:51;16.80;93.50
13880;DHT22;7010;48.200;16.332;2023-04-01T13:28:42;16.70;93.00
13880;DHT22;7010;48.200;16.332;2023-04-01T13:31:26;16.40;92.90
13880;DHT22;7010;48.200;16.332;2023-04-01T13:34:08;16.20;93.20
13880;DHT22;7010;48.200;16.332;2023-04-01T13:36:50;16.20;93.60
13880;DHT22;7010;48.200;16.332;2023-04-01T13:39:33;16.00;93.50
13880;DHT22;7010;48.200;16.332;2023-04-01T13:42:14;16.10;93.50
13880;DHT22;7010;48.200;16.332;2023-04-01T13:44:49;16.60;92.60
13880;DHT22;7010;48.200;16.332;2023-04-01T13:47:52;17.10;92.50
13880;DHT22;7010;48.200;16.332;2023-04-01T13:50:56;17.60;91.70
13880;DHT22;7010;48.200;16.332;2023-04-01T13:53:49;17.60;91.20
13880;DHT22;7010;48.200;16.332;2023-04-01T13:56:30;17.40;90.80
13880;DHT22;7010;48.200;16.332;2023-04-01T13:59:15;17.40;91.30
13880;DHT22;7010;48.200;16.332;2023-04-01T14:01:54;17.60;90.90
13880;DHT22;7010;48.200;16.332;2023-04-01T14:07:41;16.60;91.20
13880;DHT22;7010;48.200;16.332;2023-04-01T14:10:19;16.30;91.90
13880;DHT22;7010;48.200;16.332;2023-04-01T14:12:57;16.40;92.20
13880;DHT22;7010;48.200;16.332;2023-04-01T14:15:50;16.20;91.70
13880;DHT22;7010;48.200;16.332;2023-04-01T14:18:33;16.10;91.70
13880;DHT22;7010;48.200;16.332;2023-04-01T14:21:16;16.10;91.80
13880;DHT22;7010;48.200;16.332;2023-04-01T14:23:56;16.20;91.70
13880;DHT22;7010;48.200;16.332;2023-04-01T14:26:42;16.50;92.10
13880;DHT22;7010;48.200;16.332;2023-04-01T14:29:22;16.60;91.10
13880;DHT22;7010;48.200;16.332;2023-04-01T14:32:02;16.50;90.70
13880;DHT22;7010;48.200;16.332;2023-04-01T14:34:58;16.50;90.50
13880;DHT22;7010;48.200;16.332;2023-04-01T14:37:57;16.80;90.00
13880;DHT22;7010;48.200;16.332;2023-04-01T14:40:28;16.80;88.50
13880;DHT22;7010;48.200;16.332;2023-04-01T14:43:18;16.80;88.10
13880;DHT22;7010;48.200;16.332;2023-04-01T14:46:07;16.90;86.80
13880;DHT22;7010;48.200;16.332;2023-04-01T14:48:38;17.00;86.50
13880;DHT22;7010;48.200;16.332;2023-04-01T14:51:16;17.20;84.50
13880;DHT22;7010;48.200;16.332;2023-04-01T14:53:56;17.30;84.30
13880;DHT22;7010;48.200;16.332;2023-04-01T14:56:38;17.30;83.30
13880;DHT22;7010;48.200;16.332;2023-04-01T14:59:14;17.30;82.40
13880;DHT22;7010;48.200;16.332;2023-04-01T15:01:50;17.30;82.10
13880;DHT22;7010;48.200;16.332;2023-04-01T15:04:48;17.20;82.00
13880;DHT22;7010;48.200;16.332;2023-04-01T15:07:42;17.10;82.10
13880;DHT22;7010;48.200;16.332;2023-04-01T15:10:31;16.90;82.80
13880;DHT22;7010;48.200;16.332;2023-04-01T15:13:12;16.80;83.10
13880;DHT22;7010;48.200;16.332;2023-04-01T15:15:54;16.80;82.80
13880;DHT22;7010;48.200;16.332;2023-04-01T15:18:37;16.60;83.20
13880;DHT22;7010;48.200;16.332;2023-04-01T15:21:19;16.40;84.20
13880;DHT22;7010;48.200;16.332;2023-04-01T15:24:03;16.30;85.00
13880;DHT22;7010;48.200;16.332;2023-04-01T15:27:00;16.20;86.40
13880;DHT22;7010;48.200;16.332;2023-04-01T15:32:44;15.90;88.20
13880;DHT22;7010;48.200;16.332;2023-04-01T15:35:21;15.80;90.00
13880;DHT22;7010;48.200;16.332;2023-04-01T15:37:56;15.70;90.50
13880;DHT22;7010;48.200;16.332;2023-04-01T15:40:31;15.60;91.10
13880;DHT22;7010;48.200;16.332;2023-04-01T15:43:11;15.50;91.60
13880;DHT22;7010;48.200;16.332;2023-04-01T15:45:47;15.50;92.00
13880;DHT22;7010;48.200;16.332;2023-04-01T15:48:30;15.40;92.80
13880;DHT22;7010;48.200;16.332;2023-04-01T15:51:07;15.20;93.40
13880;DHT22;7010;48.200;16.332;2023-04-01T15:53:56;15.00;93.60
13880;DHT22;7010;48.200;16.332;2023-04-01T15:56:41;14.80;94.30
13880;DHT22;7010;48.200;16.332;2023-04-01T15:59:21;14.60;95.20
13880;DHT22;7010;48.200;16.332;2023-04-01T16:01:59;14.40;95.70
13880;DHT22;7010;48.200;16.332;2023-04-01T16:04:49;14.40;96.20
13880;DHT22;7010;48.200;16.332;2023-04-01T16:07:38;14.40;96.50
13880;DHT22;7010;48.200;16.332;2023-04-01T16:10:19;14.30;96.80
13880;DHT22;7010;48.200;16.332;2023-04-01T16:13:03;14.30;97.10
13880;DHT22;7010;48.200;16.332;2023-04-01T16:15:39;14.30;97.10
13880;DHT22;7010;48.200;16.332;2023-04-01T16:18:28;14.30;97.10
13880;DHT22;7010;48.200;16.332;2023-04-01T16:21:04;14.20;97.30
13880;DHT22;7010;48.200;16.332;2023-04-01T16:23:37;14.20;97.70
13880;DHT22;7010;48.200;16.332;2023-04-01T16:26:12;14.10;98.00
13880;DHT22;7010;48.200;16.332;2023-04-01T16:28:50;14.10;98.30
13880;DHT22;7010;48.200;16.332;2023-04-01T16:31:31;14.00;98.60
13880;DHT22;7010;48.200;16.332;2023-04-01T16:34:04;14.00;99.00
13880;DHT22;7010;48.200;16.332;2023-04-01T16:36:40;14.00;99.20
13880;DHT22;7010;48.200;16.332;2023-04-01T16:39:22;13.90;99.50
13880;DHT22;7010;48.200;16.332;2023-04-01T16:42:08;13.90;99.90
13880;DHT22;7010;48.200;16.332;2023-04-01T16:44:50;13.80;99.90
13880;DHT22;7010;48.200;16.332;2023-04-01T16:47:23;13.80;99.90
13880;DHT22;7010;48.200;16.332;2023-04-01T16:49:59;13.70;99.90
13880;DHT22;7010;48.200;16.332;2023-04-01T16:52:48;13.60;99.90
13880;DHT22;7010;48.200;16.332;2023-04-01T16:55:21;13.50;99.90
13880;DHT22;7010;48.200;16.332;2023-04-01T16:57:52;13.40;99.90
13880;DHT22;7010;48.200;16.332;2023-04-01T17:00:27;13.40;99.90
13880;DHT22;7010;48.200;16.332;2023-04-01T17:03:03;13.30;99.90
13880;DHT22;7010;48.200;16.332;2023-04-01T17:05:46;13.20;99.90
13880;DHT22;7010;48.200;16.332;2023-04-01T17:08:26;13.00;99.90
13880;DHT22;7010;48.200;16.332;2023-04-01T17:11:04;12.80;99.90
13880;DHT22;7010;48.200;16.332;2023-04-01T17:13:41;12.70;99.90
13880;DHT22;7010;48.200;16.332;2023-04-01T17:16:48;12.60;99.90
13880;DHT22;7010;48.200;16.332;2023-04-01T17:22:22;12.40;99.90
13880;DHT22;7010;48.200;16.332;2023-04-01T17:25:04;12.30;99.90
13880;DHT22;7010;48.200;16.332;2023-04-01T17:27:44;12.20;99.90
13880;DHT22;7010;48.200;16.332;2023-04-01T17:30:28;12.10;99.90
13880;DHT22;7010;48.200;16.332;2023-04-01T17:36:12;11.90;99.90
13880;DHT22;7010;48.200;16.332;2023-04-01T17:38:56;11.90;99.90
13880;DHT22;7010;48.200;16.332;2023-04-01T17:41:31;11.90;99.90
13880;DHT22;7010;48.200;16.332;2023-04-01T17:44:12;11.80;99.90
13880;DHT22;7010;48.200;16.332;2023-04-01T17:46:58;11.80;99.90
13880;DHT22;7010;48.200;16.332;2023-04-01T17:49:33;11.70;99.90
13880;DHT22;7010;48.200;16.332;2023-04-01T17:52:09;11.60;99.90
13880;DHT22;7010;48.200;16.332;2023-04-01T17:54:49;11.60;99.90